Time;durP1;ratioP1;P1;durP2;ratioP2;P2;SDS_P1;SDS_P2;PMS_P1;PMS_P2;Temp;Humidity;BMP_temperature;BMP_pressure;BME280_temperature;BME280_humidity;BME280_pressure;Samples;Min_cycle;Max_cycle;Signal;HPM_P1;HPM_P2
2023/07/08 00:00:23;;;;;;;2.05;1.85;;;23.40;75.60;;;;;;5044083;28;20087;-42
2023/07/08 00:02:49;;;;;;;3.15;2.08;;;23.40;75.70;;;;;;5043973;28;20033;-41
2023/07/08 00:05:18;;;;;;;2.72;1.90;;;23.40;75.80;;;;;;5043192;28;20428;-41
2023/07/08 00:07:44;;;;;;;2.85;1.85;;;23.30;75.80;;;;;;5043733;28;20068;-42
2023/07/08 00:10:22;;;;;;;2.25;1.92;;;23.40;75.90;;;;;;5043648;28;20712;-41
2023/07/08 00:12:50;;;;;;;2.88;1.73;;;23.40;76.00;;;;;;5047520;28;20040;-42
2023/07/08 00:15:16;;;;;;;3.80;2.45;;;23.30;76.10;;;;;;5047584;28;20009;-43
2023/07/08 00:17:43;;;;;;;3.30;2.00;;;23.30;76.30;;;;;;5046649;28;20461;-43
2023/07/08 00:20:29;;;;;;;1.90;1.75;;;23.30;76.50;;;;;;5047238;28;20456;-41
2023/07/08 00:22:55;;;;;;;2.38;2.15;;;23.20;76.60;;;;;;5042649;28;20040;-42
2023/07/08 00:25:20;;;;;;;3.35;2.00;;;23.20;76.70;;;;;;5046583;28;20032;-42
2023/07/08 00:27:49;;;;;;;2.28;2.08;;;23.20;76.80;;;;;;5047164;28;20500;-42
2023/07/08 00:30:24;;;;;;;1.90;1.70;;;23.10;76.90;;;;;;5047548;28;20021;-41
2023/07/08 00:33:09;;;;;;;2.85;1.90;;;23.10;77.10;;;;;;5035815;28;20106;-41
2023/07/08 00:35:43;;;;;;;2.20;2.00;;;23.10;77.20;;;;;;5047062;28;20380;-42
2023/07/08 00:38:26;;;;;;;2.63;1.90;;;23.00;77.30;;;;;;5047038;28;20021;-42
2023/07/08 00:41:06;;;;;;;2.28;1.92;;;23.00;77.50;;;;;;5046054;28;20477;-41
2023/07/08 00:43:42;;;;;;;3.38;1.95;;;22.90;77.50;;;;;;5047138;28;20496;-42
2023/07/08 00:46:26;;;;;;;3.47;1.98;;;22.90;77.70;;;;;;5045828;28;20060;-42
2023/07/08 00:49:02;;;;;;;2.80;1.95;;;22.90;77.80;;;;;;5047171;28;20036;-42
2023/07/08 00:51:28;;;;;;;3.40;2.15;;;22.80;77.90;;;;;;5047040;28;20825;-42
2023/07/08 00:53:53;;;;;;;2.38;1.73;;;22.80;78.00;;;;;;5046350;28;20128;-42
2023/07/08 00:56:28;;;;;;;2.05;1.60;;;22.80;78.20;;;;;;5046863;28;20063;-42
2023/07/08 00:59:09;;;;;;;3.58;2.05;;;22.70;78.20;;;;;;5046384;28;20029;-43
2023/07/08 01:01:41;;;;;;;1.98;1.77;;;22.70;78.30;;;;;;5045375;28;20037;-42
2023/07/08 01:04:19;;;;;;;2.15;1.90;;;22.70;78.50;;;;;;5046416;28;20132;-42
2023/07/08 01:06:52;;;;;;;2.08;1.70;;;22.60;78.50;;;;;;5045954;28;20386;-42
2023/07/08 01:09:18;;;;;;;3.03;2.05;;;22.60;78.60;;;;;;5045798;28;20132;-42
2023/07/08 01:11:44;;;;;;;2.03;1.90;;;22.60;78.80;;;;;;5045578;28;20198;-42
2023/07/08 01:14:16;;;;;;;2.40;1.90;;;22.50;78.90;;;;;;5034426;28;20473;-42
2023/07/08 01:16:42;;;;;;;2.97;2.05;;;22.50;79.00;;;;;;5045877;28;20536;-42
2023/07/08 01:19:18;;;;;;;2.40;2.00;;;22.50;79.10;;;;;;5045884;28;20481;-42
2023/07/08 01:21:59;;;;;;;2.08;1.90;;;22.40;79.10;;;;;;5045495;28;20021;-42
2023/07/08 01:24:25;;;;;;;3.05;2.08;;;22.40;79.20;;;;;;5046470;28;20029;-42
2023/07/08 01:26:51;;;;;;;4.43;1.90;;;22.40;79.30;;;;;;5045888;28;20021;-42
2023/07/08 01:29:17;;;;;;;2.17;1.60;;;22.30;79.30;;;;;;5045683;28;20574;-42
2023/07/08 01:31:48;;;;;;;2.45;2.00;;;22.30;79.40;;;;;;5046393;28;20021;-42
2023/07/08 01:34:15;;;;;;;2.28;1.58;;;22.30;79.50;;;;;;5045564;28;20021;-42
2023/07/08 01:36:47;;;;;;;3.33;1.92;;;22.30;79.60;;;;;;5046344;28;20108;-42
2023/07/08 01:39:17;;;;;;;2.38;1.70;;;22.30;79.70;;;;;;5045625;28;20029;-42
2023/07/08 01:41:43;;;;;;;3.08;2.00;;;22.20;79.80;;;;;;5045898;28;20040;-42
2023/07/08 01:44:32;;;;;;;2.97;2.20;;;22.20;80.00;;;;;;5045374;28;20036;-42
2023/07/08 01:47:14;;;;;;;2.80;2.10;;;22.20;80.20;;;;;;5046123;28;20047;-42
2023/07/08 01:49:42;;;;;;;2.38;1.92;;;22.10;80.90;;;;;;5044964;28;20345;-41
2023/07/08 01:52:10;;;;;;;2.58;1.67;;;22.10;80.40;;;;;;5045979;28;20079;-41
2023/07/08 01:54:35;;;;;;;3.22;1.98;;;22.10;80.60;;;;;;5045044;28;20021;-43
2023/07/08 01:57:07;;;;;;;1.95;1.83;;;22.00;80.70;;;;;;5044913;28;20036;-41
2023/07/08 01:59:36;;;;;;;3.50;2.00;;;22.00;81.00;;;;;;5045808;28;20017;-42
2023/07/08 02:02:01;;;;;;;1.90;1.80;;;21.90;81.10;;;;;;5045278;28;20562;-43
2023/07/08 02:04:30;;;;;;;2.00;1.80;;;21.90;81.20;;;;;;5044707;28;20061;-42
2023/07/08 02:07:00;;;;;;;3.58;1.77;;;21.90;81.40;;;;;;5045636;28;20041;-42
2023/07/08 02:09:26;;;;;;;2.40;2.20;;;21.80;81.50;;;;;;5045841;28;20025;-41
2023/07/08 02:11:53;;;;;;;3.92;2.20;;;21.90;81.70;;;;;;5044797;28;20025;-41
2023/07/08 02:14:18;;;;;;;3.13;2.03;;;21.80;81.70;;;;;;5045578;28;20322;-42
2023/07/08 02:16:47;;;;;;;2.35;2.15;;;21.80;81.80;;;;;;5045498;28;20366;-43
2023/07/08 02:19:15;;;;;;;2.25;2.03;;;21.80;82.00;;;;;;5044707;28;20047;-42
2023/07/08 02:21:41;;;;;;;4.53;2.03;;;21.80;82.10;;;;;;5045677;28;20017;-43
2023/07/08 02:24:07;;;;;;;3.80;1.98;;;21.80;82.20;;;;;;5044774;28;20107;-43
2023/07/08 02:26:32;;;;;;;3.30;2.13;;;21.70;82.30;;;;;;5043988;28;20382;-43
2023/07/08 02:28:59;;;;;;;3.40;2.22;;;21.70;82.50;;;;;;5044790;28;20025;-42
2023/07/08 02:31:25;;;;;;;5.90;1.90;;;21.70;82.60;;;;;;5044331;28;20111;-42
2023/07/08 02:33:51;;;;;;;2.65;1.88;;;21.70;82.70;;;;;;5044352;28;20025;-43
2023/07/08 02:36:17;;;;;;;2.70;2.08;;;21.70;82.80;;;;;;5044182;28;20052;-41
2023/07/08 02:38:43;;;;;;;2.58;2.10;;;21.60;82.90;;;;;;5044030;28;20384;-41
2023/07/08 02:41:08;;;;;;;2.58;2.17;;;21.60;83.70;;;;;;5044243;28;20124;-41
2023/07/08 02:43:34;;;;;;;2.55;2.20;;;21.60;83.30;;;;;;5044774;28;20021;-41
2023/07/08 02:45:59;;;;;;;3.58;2.17;;;21.60;83.40;;;;;;5043669;28;20040;-42
2023/07/08 02:48:25;;;;;;;2.72;2.10;;;21.50;83.50;;;;;;5044887;28;20033;-41
2023/07/08 02:50:50;;;;;;;3.83;1.90;;;21.50;84.20;;;;;;5044137;28;20021;-42
2023/07/08 02:53:16;;;;;;;3.67;2.08;;;21.50;83.70;;;;;;5043952;28;20024;-42
2023/07/08 02:55:42;;;;;;;2.20;2.00;;;21.50;83.80;;;;;;5044008;28;20020;-42
2023/07/08 02:58:09;;;;;;;2.20;2.00;;;21.50;83.90;;;;;;5044384;28;20032;-41
2023/07/08 03:00:37;;;;;;;2.10;1.88;;;21.50;84.10;;;;;;5043631;28;20427;-42
2023/07/08 03:03:03;;;;;;;3.65;2.10;;;21.40;84.20;;;;;;5044364;28;20123;-42
2023/07/08 03:05:30;;;;;;;3.17;2.15;;;21.40;84.40;;;;;;5044432;28;20070;-43
2023/07/08 03:07:59;;;;;;;4.18;2.17;;;21.30;84.60;;;;;;5043707;28;20064;-43
2023/07/08 03:10:24;;;;;;;2.00;1.80;;;21.30;84.70;;;;;;5044687;28;20021;-42
2023/07/08 03:12:50;;;;;;;3.50;2.35;;;21.30;85.00;;;;;;5044045;28;20491;-42
2023/07/08 03:15:15;;;;;;;2.28;2.00;;;21.30;85.10;;;;;;5043491;28;20029;-42
2023/07/08 03:17:41;;;;;;;2.58;2.00;;;21.30;85.20;;;;;;5043802;28;20107;-42
2023/07/08 03:20:08;;;;;;;2.20;2.00;;;21.20;85.20;;;;;;5044493;28;20061;-42
2023/07/08 03:22:34;;;;;;;3.75;2.08;;;21.20;85.40;;;;;;5043183;28;20443;-42
2023/07/08 03:24:59;;;;;;;2.88;2.17;;;21.20;85.60;;;;;;5043932;28;20025;-41
2023/07/08 03:27:31;;;;;;;3.50;2.40;;;21.10;85.80;;;;;;5044333;28;20036;-41
2023/07/08 03:29:57;;;;;;;3.85;2.10;;;21.10;86.50;;;;;;5044420;28;20025;-42
2023/07/08 03:32:23;;;;;;;2.20;2.00;;;21.10;86.00;;;;;;5043948;28;20036;-42
2023/07/08 03:34:48;;;;;;;2.35;2.15;;;21.00;86.10;;;;;;5043375;28;20023;-42
2023/07/08 03:37:14;;;;;;;2.85;2.00;;;21.00;86.20;;;;;;5043874;28;20491;-43
2023/07/08 03:39:40;;;;;;;2.92;2.17;;;21.00;86.30;;;;;;5043949;28;20869;-43
2023/07/08 03:42:09;;;;;;;4.80;2.30;;;21.00;86.50;;;;;;5043241;28;20037;-41
2023/07/08 03:44:34;;;;;;;2.78;1.98;;;21.00;86.50;;;;;;5044355;28;20049;-41
2023/07/08 03:47:00;;;;;;;4.93;1.90;;;21.00;86.70;;;;;;5047185;28;20771;-41
2023/07/08 03:49:26;;;;;;;3.15;2.17;;;20.90;86.70;;;;;;5047529;28;20059;-42
2023/07/08 03:51:53;;;;;;;2.00;1.80;;;21.00;86.90;;;;;;5048542;28;20021;-42
2023/07/08 03:54:21;;;;;;;3.05;2.35;;;20.90;86.90;;;;;;5047994;28;20117;-42
2023/07/08 03:56:49;;;;;;;3.15;2.13;;;20.90;87.00;;;;;;5047197;28;20948;-42
2023/07/08 03:59:15;;;;;;;3.13;2.25;;;20.90;87.10;;;;;;5044351;28;20025;-42
2023/07/08 04:01:41;;;;;;;3.13;2.28;;;20.90;87.10;;;;;;5047833;28;20056;-42
2023/07/08 04:04:09;;;;;;;2.30;2.10;;;20.90;87.20;;;;;;5047536;28;20025;-43
2023/07/08 04:06:35;;;;;;;5.15;2.47;;;20.90;87.30;;;;;;5047993;28;20053;-42
2023/07/08 04:09:00;;;;;;;2.45;1.80;;;20.90;87.40;;;;;;5047474;28;20031;-42
2023/07/08 04:11:26;;;;;;;2.05;1.85;;;20.90;87.50;;;;;;5047611;28;20039;-42
2023/07/08 04:13:52;;;;;;;2.72;1.98;;;20.80;87.60;;;;;;5046827;28;20029;-41
2023/07/08 04:16:45;;;;;;;2.10;1.90;;;20.80;87.70;;;;;;5047668;28;20029;-41
2023/07/08 04:19:14;;;;;;;2.38;2.10;;;20.80;87.80;;;;;;5047237;28;20029;-41
2023/07/08 04:21:43;;;;;;;3.42;2.20;;;20.80;87.90;;;;;;5047198;28;20480;-42
2023/07/08 04:24:10;;;;;;;2.47;1.85;;;20.80;87.90;;;;;;5046393;28;20017;-41
2023/07/08 04:26:36;;;;;;;2.20;1.75;;;20.80;88.00;;;;;;5047373;28;20582;-43
2023/07/08 04:29:02;;;;;;;3.08;2.38;;;20.80;88.10;;;;;;5047244;28;20044;-43
2023/07/08 04:31:28;;;;;;;3.20;2.42;;;20.80;88.20;;;;;;5046806;28;20021;-43
2023/07/08 04:33:53;;;;;;;2.30;1.98;;;20.80;88.30;;;;;;5047622;28;20028;-43
2023/07/08 04:36:21;;;;;;;2.17;1.92;;;20.80;88.40;;;;;;5047086;28;20473;-42
2023/07/08 04:38:47;;;;;;;2.67;2.35;;;20.80;88.40;;;;;;5046086;28;20025;-42
2023/07/08 04:41:19;;;;;;;2.28;2.08;;;20.80;88.50;;;;;;5046710;28;20021;-42
2023/07/08 04:43:44;;;;;;;2.45;2.10;;;20.80;88.60;;;;;;5047077;28;20055;-42
2023/07/08 04:46:19;;;;;;;2.22;1.92;;;20.80;88.60;;;;;;5046296;28;20479;-41
2023/07/08 04:48:45;;;;;;;2.30;2.08;;;20.80;88.70;;;;;;5046620;28;20117;-42
2023/07/08 04:51:11;;;;;;;2.35;2.15;;;20.80;88.70;;;;;;5047013;28;20025;-42
2023/07/08 04:53:45;;;;;;;2.10;1.90;;;20.80;88.80;;;;;;5045920;28;20091;-42
2023/07/08 04:56:10;;;;;;;4.47;2.03;;;20.80;88.80;;;;;;5042712;28;20028;-42
2023/07/08 04:58:39;;;;;;;3.15;2.20;;;20.80;88.90;;;;;;5046811;28;20032;-42
2023/07/08 05:01:04;;;;;;;2.80;2.22;;;20.80;89.00;;;;;;5045136;28;20029;-42
2023/07/08 05:03:30;;;;;;;2.08;1.85;;;20.80;89.00;;;;;;5046686;28;20032;-41
2023/07/08 05:05:56;;;;;;;2.40;2.00;;;20.80;89.00;;;;;;5046427;28;20098;-42
2023/07/08 05:08:21;;;;;;;4.97;2.20;;;20.80;89.20;;;;;;5045833;28;20721;-43
2023/07/08 05:10:47;;;;;;;3.83;2.42;;;20.80;89.30;;;;;;5046173;28;20045;-43
2023/07/08 05:13:15;;;;;;;3.30;2.10;;;20.80;89.30;;;;;;5045956;28;20058;-43
2023/07/08 05:15:41;;;;;;;2.38;2.17;;;20.80;89.40;;;;;;5045588;28;20048;-42
2023/07/08 05:18:06;;;;;;;2.20;2.00;;;20.90;89.50;;;;;;5046540;28;20060;-42
2023/07/08 05:20:34;;;;;;;2.10;1.90;;;20.90;89.60;;;;;;5045542;28;20033;-42
2023/07/08 05:23:02;;;;;;;2.10;1.85;;;20.90;89.60;;;;;;5046317;28;20040;-42
2023/07/08 05:25:32;;;;;;;1.80;1.70;;;20.90;89.70;;;;;;5046222;28;20036;-41
2023/07/08 05:27:58;;;;;;;1.92;1.83;;;20.90;89.90;;;;;;5045391;28;20406;-41
2023/07/08 05:30:23;;;;;;;2.83;2.00;;;20.90;89.90;;;;;;5046236;28;20017;-42
2023/07/08 05:32:49;;;;;;;2.00;1.80;;;20.90;89.90;;;;;;5035029;28;20025;-42
2023/07/08 05:35:15;;;;;;;3.75;2.20;;;20.90;89.90;;;;;;5045396;28;20130;-42
2023/07/08 05:37:41;;;;;;;2.40;2.00;;;20.90;90.00;;;;;;5045831;28;20032;-43
2023/07/08 05:40:08;;;;;;;3.90;2.10;;;20.90;90.00;;;;;;5045614;28;20021;-42
2023/07/08 05:42:37;;;;;;;2.72;1.80;;;20.90;90.00;;;;;;5043876;28;20476;-42
2023/07/08 05:45:06;;;;;;;3.17;1.80;;;20.90;90.00;;;;;;5045993;28;20122;-42
2023/07/08 05:47:35;;;;;;;2.13;1.95;;;20.90;90.10;;;;;;5045541;28;20083;-43
2023/07/08 05:50:00;;;;;;;1.98;1.45;;;21.00;90.10;;;;;;5045423;28;20426;-42
2023/07/08 05:52:26;;;;;;;2.15;1.95;;;21.00;90.10;;;;;;5045939;28;20032;-42
2023/07/08 05:54:51;;;;;;;3.03;2.20;;;21.10;90.10;;;;;;5045570;28;20036;-43
2023/07/08 05:57:17;;;;;;;2.00;1.80;;;21.10;90.10;;;;;;5044763;28;20029;-42
2023/07/08 05:59:43;;;;;;;3.53;1.80;;;21.10;90.40;;;;;;5045497;28;20040;-42
2023/07/08 06:02:11;;;;;;;2.58;2.20;;;21.20;90.20;;;;;;5045030;28;20083;-42
2023/07/08 06:04:36;;;;;;;2.08;1.80;;;21.20;90.20;;;;;;5044775;28;20059;-42
2023/07/08 06:07:02;;;;;;;2.97;1.80;;;21.20;90.10;;;;;;5045065;28;20412;-42
2023/07/08 06:09:27;;;;;;;1.95;1.75;;;21.30;90.20;;;;;;5044433;28;20632;-43
2023/07/08 06:11:53;;;;;;;2.03;1.83;;;21.30;90.20;;;;;;5045156;28;20234;-43
2023/07/08 06:14:18;;;;;;;2.00;1.90;;;21.40;90.20;;;;;;5044985;28;20025;-43
2023/07/08 06:16:45;;;;;;;2.20;2.00;;;21.40;90.20;;;;;;5044285;28;20045;-42
2023/07/08 06:19:11;;;;;;;2.92;1.95;;;21.50;90.20;;;;;;5044726;28;20115;-42
2023/07/08 06:21:37;;;;;;;2.40;1.95;;;21.50;90.20;;;;;;5045303;28;20040;-42
2023/07/08 06:24:03;;;;;;;3.88;2.33;;;21.50;90.20;;;;;;5044208;28;20486;-42
2023/07/08 06:26:28;;;;;;;2.38;2.10;;;21.60;90.20;;;;;;5044983;28;20029;-42
2023/07/08 06:28:54;;;;;;;2.33;2.00;;;21.60;90.20;;;;;;5044537;28;20465;-42
2023/07/08 06:31:19;;;;;;;5.15;2.20;;;21.60;90.20;;;;;;5043917;28;20029;-42
2023/07/08 06:33:45;;;;;;;2.22;1.98;;;21.60;90.20;;;;;;5044908;28;20370;-42
2023/07/08 06:36:14;;;;;;;2.45;1.95;;;21.70;90.20;;;;;;5044641;28;20037;-41
2023/07/08 06:38:39;;;;;;;1.85;1.73;;;21.70;90.20;;;;;;5043919;28;20165;-42
2023/07/08 06:41:08;;;;;;;4.65;2.67;;;21.70;90.20;;;;;;5044245;28;20496;-42
2023/07/08 06:43:33;;;;;;;3.78;2.15;;;21.80;90.20;;;;;;5044527;28;20029;-42
2023/07/08 06:45:59;;;;;;;3.38;2.03;;;21.80;90.20;;;;;;5043761;28;20032;-41
2023/07/08 06:48:25;;;;;;;3.63;2.20;;;21.80;90.30;;;;;;5045370;28;20086;-42
2023/07/08 06:50:51;;;;;;;2.60;2.30;;;21.90;90.30;;;;;;5045114;28;20619;-41
2023/07/08 06:53:17;;;;;;;3.95;2.13;;;21.90;90.30;;;;;;5043803;28;20435;-42
2023/07/08 06:55:46;;;;;;;3.50;2.10;;;22.00;90.30;;;;;;5044469;28;20043;-41
2023/07/08 06:58:12;;;;;;;2.33;2.13;;;22.00;90.30;;;;;;5044293;28;20508;-42
2023/07/08 07:00:41;;;;;;;2.65;2.33;;;22.10;90.40;;;;;;5043643;28;20033;-42
2023/07/08 07:03:06;;;;;;;2.30;1.63;;;22.10;90.40;;;;;;5043764;28;20041;-42
2023/07/08 07:05:32;;;;;;;4.07;2.03;;;22.10;90.40;;;;;;5044068;28;20028;-42
2023/07/08 07:07:58;;;;;;;2.58;1.52;;;22.20;90.40;;;;;;5041856;28;20595;-42
2023/07/08 07:10:26;;;;;;;1.83;1.65;;;22.30;90.50;;;;;;5042835;28;20032;-42
2023/07/08 07:12:52;;;;;;;2.20;2.00;;;22.30;90.50;;;;;;5042078;28;20124;-42
2023/07/08 07:15:20;;;;;;;1.80;1.60;;;22.30;90.50;;;;;;5042532;28;20072;-42
2023/07/08 07:17:49;;;;;;;2.42;1.85;;;22.40;90.60;;;;;;5041861;28;20465;-42
2023/07/08 07:20:15;;;;;;;3.47;2.00;;;22.40;90.60;;;;;;5044779;28;20250;-42
2023/07/08 07:22:40;;;;;;;4.50;1.83;;;22.40;90.60;;;;;;5048552;28;20706;-41
2023/07/08 07:25:06;;;;;;;2.00;1.80;;;22.50;90.70;;;;;;5049823;28;20030;-42
2023/07/08 07:27:32;;;;;;;1.92;1.73;;;22.50;90.70;;;;;;5047611;28;20392;-42
2023/07/08 07:30:01;;;;;;;1.85;1.67;;;22.60;90.70;;;;;;5047750;28;20033;-41
2023/07/08 07:32:31;;;;;;;1.33;1.23;;;22.60;90.80;;;;;;5048632;28;20029;-41
2023/07/08 07:34:59;;;;;;;2.05;1.55;;;22.70;90.80;;;;;;5047372;28;20108;-42
2023/07/08 07:37:24;;;;;;;1.90;1.80;;;22.70;90.80;;;;;;5048543;28;20021;-42
2023/07/08 07:39:52;;;;;;;2.58;1.67;;;22.80;90.80;;;;;;5046331;28;20043;-42
2023/07/08 07:42:19;;;;;;;1.85;1.70;;;22.80;90.80;;;;;;5046922;28;20040;-42
2023/07/08 07:44:45;;;;;;;2.17;1.98;;;22.90;90.90;;;;;;5048341;28;20098;-42
2023/07/08 07:47:11;;;;;;;2.40;1.80;;;22.90;90.90;;;;;;5048786;28;20560;-41
2023/07/08 07:49:39;;;;;;;2.17;1.90;;;23.00;91.00;;;;;;5047015;28;20025;-43
2023/07/08 07:52:06;;;;;;;2.65;1.80;;;23.00;91.00;;;;;;5045180;28;20040;-43
2023/07/08 07:54:32;;;;;;;2.05;1.88;;;23.00;91.00;;;;;;5047736;28;20013;-42
2023/07/08 07:56:57;;;;;;;1.90;1.80;;;23.10;91.00;;;;;;5046870;28;20032;-42
2023/07/08 07:59:23;;;;;;;1.80;1.70;;;23.10;91.00;;;;;;5049112;28;20043;-42
2023/07/08 08:01:49;;;;;;;3.00;1.65;;;23.10;91.30;;;;;;5048264;28;20082;-42
2023/07/08 08:04:14;;;;;;;2.15;1.95;;;23.20;91.00;;;;;;5048316;28;20021;-42
2023/07/08 08:06:40;;;;;;;3.50;2.13;;;23.20;91.00;;;;;;5047949;28;20049;-43
2023/07/08 08:09:06;;;;;;;2.40;2.20;;;23.30;91.10;;;;;;5046945;28;20107;-40
2023/07/08 08:11:35;;;;;;;2.42;2.22;;;23.40;91.10;;;;;;5046210;28;20021;-41
2023/07/08 08:14:03;;;;;;;2.72;2.25;;;23.40;91.10;;;;;;5046994;28;20832;-41
2023/07/08 08:16:29;;;;;;;2.45;2.15;;;23.50;91.10;;;;;;5046456;28;20031;-41
2023/07/08 08:18:54;;;;;;;2.13;1.95;;;23.50;91.10;;;;;;5046582;28;20029;-41
2023/07/08 08:21:21;;;;;;;2.35;2.15;;;23.60;91.10;;;;;;5047483;28;20025;-42
2023/07/08 08:23:47;;;;;;;2.28;2.08;;;23.60;91.10;;;;;;5046670;28;20134;-41
2023/07/08 08:26:15;;;;;;;5.22;2.63;;;23.70;91.10;;;;;;5047662;28;20661;-41
2023/07/08 08:28:41;;;;;;;2.55;2.35;;;23.70;91.10;;;;;;5037792;28;20103;-42
2023/07/08 08:31:06;;;;;;;2.50;2.30;;;23.80;91.10;;;;;;5044760;28;20036;-45
2023/07/08 08:33:32;;;;;;;2.92;2.38;;;23.80;91.10;;;;;;5046324;28;20100;-43
2023/07/08 08:35:58;;;;;;;3.20;2.90;;;23.80;91.20;;;;;;5046856;28;20044;-42
2023/07/08 08:38:23;;;;;;;3.03;2.40;;;23.90;91.20;;;;;;5046056;28;20021;-42
2023/07/08 08:40:49;;;;;;;2.92;2.60;;;23.90;91.10;;;;;;5046344;28;20029;-42
2023/07/08 08:43:33;;;;;;;2.60;2.17;;;24.00;91.10;;;;;;5046125;28;20501;-42
2023/07/08 08:46:02;;;;;;;1.83;1.73;;;24.10;91.20;;;;;;5045661;28;20223;-42
2023/07/08 08:48:36;;;;;;;1.88;1.75;;;24.00;91.00;;;;;;5046903;28;20095;-41
2023/07/08 08:51:12;;;;;;;2.25;1.92;;;24.10;91.10;;;;;;5047073;28;20653;-42
2023/07/08 08:53:38;;;;;;;3.47;2.03;;;24.20;91.20;;;;;;5045761;28;20033;-42
2023/07/08 08:56:14;;;;;;;2.10;1.80;;;24.20;91.30;;;;;;5045913;28;20032;-42
2023/07/08 08:58:46;;;;;;;2.47;2.25;;;24.20;91.40;;;;;;5045127;28;20033;-42
2023/07/08 09:01:14;;;;;;;2.17;1.85;;;24.20;91.40;;;;;;5045330;28;20029;-43
2023/07/08 09:03:46;;;;;;;2.88;1.88;;;24.30;91.40;;;;;;5045432;28;20774;-43
2023/07/08 09:06:36;;;;;;;2.63;2.22;;;24.40;91.30;;;;;;5044937;28;20041;-42
2023/07/08 09:09:16;;;;;;;2.65;2.13;;;24.40;91.60;;;;;;5047073;28;20376;-43
2023/07/08 09:11:50;;;;;;;2.15;1.80;;;24.50;91.30;;;;;;5046954;28;20385;-42
2023/07/08 09:14:22;;;;;;;2.38;2.13;;;24.60;91.40;;;;;;5046289;28;20038;-42
2023/07/08 09:16:51;;;;;;;2.65;2.22;;;24.60;91.30;;;;;;5047509;28;20033;-41
2023/07/08 09:19:32;;;;;;;3.90;2.22;;;24.70;91.30;;;;;;5046011;28;20234;-42
2023/07/08 09:21:58;;;;;;;2.60;2.20;;;24.70;91.30;;;;;;5026069;28;20840;-42
2023/07/08 09:24:36;;;;;;;2.70;2.38;;;24.70;91.40;;;;;;5043031;28;20025;-42
2023/07/08 09:27:08;;;;;;;3.05;2.50;;;24.80;91.40;;;;;;5041587;28;20154;-42
2023/07/08 09:29:34;;;;;;;4.63;2.30;;;24.90;91.40;;;;;;5046798;28;20143;-42
2023/07/08 09:32:19;;;;;;;2.72;2.50;;;25.00;91.30;;;;;;5046727;28;20017;-42
2023/07/08 09:34:56;;;;;;;3.40;2.47;;;25.10;91.30;;;;;;5045661;28;20526;-42
2023/07/08 09:37:23;;;;;;;2.60;2.30;;;25.10;91.30;;;;;;5026730;28;20024;-42
2023/07/08 09:39:52;;;;;;;2.70;2.28;;;25.10;91.20;;;;;;5041825;28;20079;-42
2023/07/08 09:42:20;;;;;;;2.60;2.40;;;25.10;91.20;;;;;;5043597;28;20116;-42
2023/07/08 09:44:46;;;;;;;2.40;2.17;;;25.20;91.10;;;;;;5046123;28;20033;-42
2023/07/08 09:47:22;;;;;;;2.97;2.67;;;25.20;91.00;;;;;;5046566;28;20035;-42
2023/07/08 09:49:48;;;;;;;2.42;2.22;;;25.30;91.10;;;;;;5046313;28;20100;-42
2023/07/08 09:52:17;;;;;;;2.58;2.30;;;25.30;91.00;;;;;;5046673;28;20063;-42
2023/07/08 09:54:42;;;;;;;3.72;2.25;;;25.40;91.00;;;;;;5045239;28;20020;-42
2023/07/08 09:57:30;;;;;;;3.00;2.45;;;25.40;91.00;;;;;;5046382;28;20942;-42
2023/07/08 10:00:07;;;;;;;2.95;2.53;;;25.40;91.00;;;;;;5046771;28;20016;-42
2023/07/08 10:02:40;;;;;;;3.67;2.85;;;25.50;90.90;;;;;;5045631;28;20037;-42
2023/07/08 10:05:19;;;;;;;2.83;2.47;;;25.60;90.90;;;;;;5045903;28;20017;-42
2023/07/08 10:07:47;;;;;;;4.00;2.42;;;25.60;90.80;;;;;;5045949;28;20063;-43
2023/07/08 10:10:17;;;;;;;3.13;2.83;;;25.70;90.80;;;;;;5045244;28;20036;-42
2023/07/08 10:12:58;;;;;;;5.10;3.00;;;25.70;90.70;;;;;;5045563;28;20045;-42
2023/07/08 10:15:37;;;;;;;4.32;2.92;;;25.80;90.70;;;;;;5046482;28;20045;-42
2023/07/08 10:18:02;;;;;;;3.25;2.78;;;25.80;90.60;;;;;;5045982;28;20461;-41
2023/07/08 10:20:57;;;;;;;3.28;2.83;;;25.90;90.50;;;;;;5045736;28;20074;-42
2023/07/08 10:23:34;;;;;;;2.42;2.22;;;25.90;90.60;;;;;;5044754;28;20140;-42
2023/07/08 10:26:15;;;;;;;3.25;2.50;;;26.00;90.50;;;;;;5046162;28;20017;-42
2023/07/08 10:28:53;;;;;;;4.13;3.25;;;26.10;90.60;;;;;;5045859;28;20857;-42
2023/07/08 10:31:32;;;;;;;3.80;3.00;;;26.10;90.50;;;;;;5044451;28;20045;-42
2023/07/08 10:34:27;;;;;;;3.67;3.30;;;26.20;90.30;;;;;;5045794;28;20079;-42
2023/07/08 10:37:29;;;;;;;4.05;3.38;;;26.30;90.20;;;;;;5044857;28;20021;-42
2023/07/08 10:39:55;;;;;;;;;;;26.40;90.10;;;;;;5025921;28;20025;-43
2023/07/08 10:42:31;;;;;;;3.83;3.20;;;26.50;90.10;;;;;;5043573;28;19931;-43
2023/07/08 10:45:23;;;;;;;2.97;2.67;;;26.60;90.00;;;;;;5045192;28;20048;-43
2023/07/08 10:48:09;;;;;;;4.85;3.67;;;26.60;89.80;;;;;;5045053;28;20527;-42
2023/07/08 10:51:02;;;;;;;3.72;3.33;;;26.70;89.90;;;;;;5045303;28;20033;-41
2023/07/08 10:53:47;;;;;;;3.35;2.97;;;26.90;89.40;;;;;;5045007;28;20081;-42
2023/07/08 10:56:37;;;;;;;4.13;3.50;;;27.10;89.20;;;;;;5044374;28;20029;-42
2023/07/08 10:59:21;;;;;;;4.03;3.17;;;27.10;89.00;;;;;;5036727;28;20044;-42
2023/07/08 11:02:10;;;;;;;3.92;3.30;;;27.10;89.00;;;;;;5045162;28;20036;-42
2023/07/08 11:04:46;;;;;;;3.58;3.13;;;27.10;89.00;;;;;;5045055;28;20389;-42
2023/07/08 11:07:24;;;;;;;4.22;3.35;;;27.00;88.80;;;;;;5044942;28;20063;-42
2023/07/08 11:09:57;;;;;;;3.53;3.22;;;27.10;88.80;;;;;;5045355;28;20025;-43
2023/07/08 11:12:34;;;;;;;3.70;3.13;;;27.10;88.90;;;;;;5044650;28;20056;-42
2023/07/08 11:15:06;;;;;;;3.50;3.20;;;27.10;89.00;;;;;;5044737;28;20052;-42
2023/07/08 11:17:40;;;;;;;3.40;3.10;;;27.30;89.00;;;;;;5044889;28;20025;-42
2023/07/08 11:20:14;;;;;;;4.05;3.20;;;27.40;88.70;;;;;;5044263;28;20428;-42
2023/07/08 11:23:11;;;;;;;3.75;3.03;;;27.60;88.60;;;;;;5045085;28;20059;-43
2023/07/08 11:25:39;;;;;;;4.25;3.20;;;27.60;88.40;;;;;;5044180;28;20132;-42
2023/07/08 11:28:12;;;;;;;3.30;3.00;;;27.60;88.50;;;;;;5044503;28;20031;-42
2023/07/08 11:30:41;;;;;;;3.40;3.10;;;27.60;88.60;;;;;;5045427;28;20155;-42
2023/07/08 11:33:24;;;;;;;3.90;3.22;;;27.60;88.50;;;;;;5043807;28;20032;-41
2023/07/08 11:35:55;;;;;;;3.80;3.38;;;27.60;88.30;;;;;;5044624;28;20048;-41
2023/07/08 11:38:21;;;;;;;3.88;3.42;;;27.70;88.40;;;;;;5044899;28;20024;-41
2023/07/08 11:40:54;;;;;;;3.88;3.30;;;27.70;88.30;;;;;;5044232;28;20029;-42
2023/07/08 11:43:22;;;;;;;3.25;2.95;;;27.80;88.40;;;;;;5045184;28;20033;-42
2023/07/08 11:45:54;;;;;;;3.63;3.33;;;27.90;88.30;;;;;;5045161;28;20017;-42
2023/07/08 11:48:36;;;;;;;3.55;3.25;;;27.80;88.20;;;;;;5044016;28;20374;-42
2023/07/08 11:51:07;;;;;;;4.70;3.78;;;28.00;88.30;;;;;;5044704;28;20029;-41
2023/07/08 11:53:46;;;;;;;4.78;4.05;;;28.10;88.50;;;;;;5045312;28;20104;-42
2023/07/08 11:56:21;;;;;;;4.40;3.80;;;28.10;88.00;;;;;;5044019;28;20056;-44
2023/07/08 11:58:50;;;;;;;4.65;3.33;;;28.10;87.90;;;;;;5044796;28;20043;-41
2023/07/08 12:04:28;;;;;;;3.88;3.47;;;28.10;88.00;;;;;;5042956;28;20128;-42
2023/07/08 12:07:06;;;;;;;3.90;3.50;;;28.10;88.20;;;;;;5045946;28;20055;-42
2023/07/08 12:09:48;;;;;;;3.60;3.00;;;28.10;88.30;;;;;;5047129;28;20093;-43
2023/07/08 12:12:21;;;;;;;3.60;3.30;;;28.10;88.20;;;;;;5049083;28;20024;-43
2023/07/08 12:14:47;;;;;;;3.97;3.17;;;28.20;88.10;;;;;;5048463;28;20025;-43
2023/07/08 12:17:14;;;;;;;3.88;3.40;;;28.20;88.20;;;;;;5047885;28;20032;-43
2023/07/08 12:19:43;;;;;;;4.25;3.78;;;28.30;88.00;;;;;;5048271;28;20025;-43
2023/07/08 12:22:11;;;;;;;3.63;3.30;;;28.30;87.90;;;;;;5047434;28;20033;-42
2023/07/08 12:24:38;;;;;;;3.50;2.97;;;28.40;87.90;;;;;;5047896;28;20021;-42
2023/07/08 12:27:04;;;;;;;3.55;3.13;;;28.40;87.80;;;;;;5048557;28;20029;-41
2023/07/08 12:29:32;;;;;;;3.70;3.40;;;28.50;87.80;;;;;;5047552;28;20029;-41
2023/07/08 12:31:58;;;;;;;3.97;3.38;;;28.50;87.50;;;;;;5047853;28;20014;-42
2023/07/08 12:34:25;;;;;;;4.07;3.67;;;28.60;87.20;;;;;;5048255;28;20036;-42
2023/07/08 12:36:51;;;;;;;4.22;3.80;;;28.70;87.10;;;;;;5047006;28;20086;-42
2023/07/08 12:39:21;;;;;;;3.90;3.50;;;28.80;87.00;;;;;;5047498;28;20029;-42
2023/07/08 12:41:49;;;;;;;3.50;3.20;;;28.90;86.80;;;;;;5048043;28;20024;-42
2023/07/08 12:44:19;;;;;;;3.78;3.47;;;28.90;86.70;;;;;;5047828;28;20607;-42
2023/07/08 12:46:46;;;;;;;4.20;3.83;;;28.90;86.50;;;;;;5046441;28;20024;-42
2023/07/08 12:49:13;;;;;;;4.18;3.67;;;28.90;86.40;;;;;;5047933;28;20881;-42
2023/07/08 12:51:42;;;;;;;4.07;3.60;;;29.00;86.10;;;;;;5046575;28;20481;-42
2023/07/08 12:54:10;;;;;;;4.13;3.60;;;29.10;85.80;;;;;;5047630;28;20036;-42
2023/07/08 12:56:37;;;;;;;3.67;3.38;;;29.20;85.40;;;;;;5047483;28;20618;-42
2023/07/08 12:59:05;;;;;;;5.30;4.00;;;29.40;85.20;;;;;;5046747;28;20047;-42
2023/07/08 13:01:35;;;;;;;4.50;4.10;;;29.50;84.80;;;;;;5047011;28;20681;-43
2023/07/08 13:04:10;;;;;;;4.18;3.78;;;29.60;84.70;;;;;;5047706;28;20047;-43